Time;durP1;ratioP1;P1;durP2;ratioP2;P2;SDS_P1;SDS_P2;PMS_P1;PMS_P2;Temp;Humidity;BMP_temperature;BMP_pressure;BME280_temperature;BME280_humidity;BME280_pressure;Samples;Min_cycle;Max_cycle;Signal;HPM_P1;HPM_P2
2023/01/22 00:00:59;;;;;;;18.90;10.70;;;3.10;99.90;;;;;;5043944;28;20457;-71
2023/01/22 00:03:25;;;;;;;14.23;9.70;;;3.00;99.90;;;;;;5053564;28;20192;-71
2023/01/22 00:05:51;;;;;;;16.60;10.20;;;3.00;99.90;;;;;;5045124;28;20179;-70
2023/01/22 00:08:18;;;;;;;16.03;10.37;;;3.10;99.90;;;;;;5046990;28;20186;-71
2023/01/22 00:10:54;;;;;;;15.70;10.80;;;3.00;99.90;;;;;;5043697;28;20439;-71
2023/01/22 00:13:21;;;;;;;20.93;11.20;;;3.00;99.90;;;;;;5040535;28;20438;-71
2023/01/22 00:15:47;;;;;;;18.07;10.00;;;3.10;99.90;;;;;;5040835;28;20429;-71
2023/01/22 00:18:13;;;;;;;12.90;8.97;;;3.00;99.90;;;;;;5048302;28;20437;-71
2023/01/22 00:20:39;;;;;;;14.93;9.67;;;3.10;99.90;;;;;;5049175;28;20520;-72
2023/01/22 00:23:05;;;;;;;13.77;9.20;;;3.00;99.90;;;;;;5043890;28;21009;-71
2023/01/22 00:25:31;;;;;;;15.03;8.40;;;3.00;99.90;;;;;;5043195;28;20187;-71
2023/01/22 00:27:56;;;;;;;14.47;9.77;;;3.00;99.90;;;;;;5044595;28;20452;-71
2023/01/22 00:30:22;;;;;;;16.93;9.40;;;3.10;99.90;;;;;;5046501;28;20840;-71
2023/01/22 00:32:47;;;;;;;14.53;9.33;;;3.10;99.90;;;;;;5050683;28;20299;-71
2023/01/22 00:35:13;;;;;;;13.03;9.17;;;3.10;99.90;;;;;;5046232;28;20203;-71
2023/01/22 00:37:38;;;;;;;14.77;9.80;;;3.00;99.90;;;;;;5043612;28;20183;-71
2023/01/22 00:40:05;;;;;;;14.97;10.37;;;2.90;99.90;;;;;;5047215;28;20237;-71
2023/01/22 00:42:30;;;;;;;13.30;9.57;;;3.00;99.90;;;;;;5047383;28;20222;-71
2023/01/22 00:44:58;;;;;;;15.27;10.23;;;3.00;99.90;;;;;;5047700;28;20477;-70
2023/01/22 00:47:24;;;;;;;18.07;9.40;;;3.00;99.90;;;;;;5049624;28;20760;-70
2023/01/22 00:49:50;;;;;;;14.90;9.20;;;3.10;99.90;;;;;;5050071;28;20429;-71
2023/01/22 00:52:15;;;;;;;15.20;9.30;;;3.10;99.90;;;;;;5040133;28;20975;-71
2023/01/22 00:54:41;;;;;;;12.50;9.43;;;3.00;99.90;;;;;;5049683;28;20211;-71
2023/01/22 00:57:07;;;;;;;16.27;8.93;;;3.00;99.90;;;;;;5050702;28;20182;-71
2023/01/22 00:59:32;;;;;;;13.47;9.40;;;3.00;99.90;;;;;;5046684;28;20187;-70
2023/01/22 01:01:58;;;;;;;14.93;9.77;;;3.00;99.90;;;;;;5050367;28;20231;-71
2023/01/22 01:04:23;;;;;;;16.27;10.90;;;3.10;99.90;;;;;;5047287;28;20200;-71
2023/01/22 01:06:49;;;;;;;14.13;9.40;;;3.10;99.90;;;;;;5048913;28;20198;-71
2023/01/22 01:09:14;;;;;;;19.33;9.50;;;3.10;99.90;;;;;;5048050;28;20187;-72
2023/01/22 01:11:40;;;;;;;20.33;9.63;;;3.10;99.90;;;;;;5045461;28;20195;-72
2023/01/22 01:14:06;;;;;;;15.23;10.70;;;3.10;99.90;;;;;;5048904;28;20199;-72
2023/01/22 01:16:31;;;;;;;16.50;9.80;;;3.10;99.90;;;;;;5046797;28;20193;-72
2023/01/22 01:19:03;;;;;;;16.03;9.30;;;3.10;99.90;;;;;;5047874;28;20215;-72
2023/01/22 01:21:29;;;;;;;15.57;8.97;;;3.10;99.90;;;;;;5047407;28;20862;-72
2023/01/22 01:23:56;;;;;;;17.50;9.50;;;3.10;99.90;;;;;;5049638;28;20540;-72
2023/01/22 01:26:22;;;;;;;14.80;10.13;;;3.10;99.90;;;;;;5048768;28;20445;-71
2023/01/22 01:28:51;;;;;;;15.27;9.37;;;3.10;99.90;;;;;;5050601;28;20448;-72
2023/01/22 01:31:17;;;;;;;15.77;10.80;;;3.10;99.90;;;;;;5040020;28;20732;-71
2023/01/22 01:33:44;;;;;;;16.47;9.90;;;3.10;99.90;;;;;;5052847;28;20478;-71
2023/01/22 01:36:15;;;;;;;16.57;11.03;;;3.10;99.90;;;;;;5046841;28;20433;-71
2023/01/22 01:38:41;;;;;;;17.03;9.10;;;3.10;99.90;;;;;;5046150;28;20530;-71
2023/01/22 01:41:07;;;;;;;12.20;9.03;;;3.10;99.90;;;;;;5049998;28;20457;-71
2023/01/22 01:43:33;;;;;;;16.03;10.47;;;3.10;99.90;;;;;;5045973;28;20439;-70
2023/01/22 01:46:01;;;;;;;16.03;10.17;;;3.10;99.90;;;;;;5040848;28;20491;-69
2023/01/22 01:48:32;;;;;;;16.87;11.47;;;3.10;99.90;;;;;;5051686;28;20440;-71
2023/01/22 01:51:26;;;;;;;18.10;11.20;;;3.10;99.90;;;;;;5046745;28;20440;-71
2023/01/22 01:53:52;;;;;;;16.60;10.80;;;3.20;99.90;;;;;;5040638;28;20489;-70
2023/01/22 01:56:25;;;;;;;16.60;10.90;;;3.20;99.90;;;;;;5050039;28;20869;-71
2023/01/22 01:58:54;;;;;;;16.50;11.17;;;3.20;99.90;;;;;;5048008;28;21081;-70
2023/01/22 02:01:20;;;;;;;18.53;11.70;;;3.20;99.90;;;;;;5044126;28;20464;-71
2023/01/22 02:03:46;;;;;;;17.40;11.80;;;3.20;99.90;;;;;;5046602;28;20530;-71
2023/01/22 02:06:15;;;;;;;18.50;11.33;;;3.30;99.90;;;;;;5049441;28;21263;-70
2023/01/22 02:08:43;;;;;;;20.10;12.03;;;3.30;99.90;;;;;;5045268;28;20992;-70
2023/01/22 02:11:09;;;;;;;16.13;11.20;;;3.30;99.90;;;;;;5046636;28;21344;-70
2023/01/22 02:13:38;;;;;;;20.03;11.57;;;3.30;99.90;;;;;;5048509;28;20498;-70
2023/01/22 02:16:06;;;;;;;19.00;11.53;;;3.30;99.90;;;;;;5047654;28;20452;-70
2023/01/22 02:18:32;;;;;;;18.20;11.63;;;3.30;99.90;;;;;;5057740;28;20429;-70
2023/01/22 02:21:00;;;;;;;17.90;12.13;;;3.40;99.90;;;;;;5044070;28;20795;-70
2023/01/22 02:23:27;;;;;;;18.70;11.30;;;3.40;99.90;;;;;;5052573;28;20425;-70
2023/01/22 02:25:52;;;;;;;18.73;12.00;;;3.40;99.90;;;;;;5044173;28;20483;-69
2023/01/22 02:28:18;;;;;;;20.97;12.53;;;3.40;99.90;;;;;;5046055;28;20887;-70
2023/01/22 02:30:45;;;;;;;17.63;11.83;;;3.40;99.90;;;;;;5044043;28;20179;-70
2023/01/22 02:33:11;;;;;;;17.60;11.93;;;3.40;99.90;;;;;;5045924;28;20879;-70
2023/01/22 02:35:36;;;;;;;18.00;12.27;;;3.40;99.90;;;;;;5049258;28;20472;-70
2023/01/22 02:38:03;;;;;;;17.10;12.17;;;3.40;99.90;;;;;;5040481;28;20703;-70
2023/01/22 02:40:28;;;;;;;17.33;11.20;;;3.40;99.90;;;;;;5045817;28;20182;-70
2023/01/22 02:42:54;;;;;;;18.33;11.23;;;3.40;99.90;;;;;;5040215;28;20458;-71
2023/01/22 02:45:20;;;;;;;19.30;12.97;;;3.40;99.90;;;;;;5038651;28;20190;-71
2023/01/22 02:47:46;;;;;;;19.87;11.87;;;3.40;99.90;;;;;;5038116;28;20442;-71
2023/01/22 02:50:11;;;;;;;17.37;11.47;;;3.40;99.90;;;;;;5051297;28;20195;-72
2023/01/22 02:52:37;;;;;;;14.90;10.57;;;3.40;99.90;;;;;;5041911;28;20218;-71
2023/01/22 02:55:03;;;;;;;13.93;10.50;;;3.40;99.90;;;;;;5050626;28;20209;-71
2023/01/22 02:57:30;;;;;;;18.30;11.63;;;3.30;99.90;;;;;;5040129;28;20186;-71
2023/01/22 02:59:56;;;;;;;17.60;11.33;;;3.40;99.90;;;;;;5048137;28;20524;-71
2023/01/22 03:02:21;;;;;;;20.80;12.00;;;3.40;99.90;;;;;;5044781;28;21302;-71
2023/01/22 03:04:48;;;;;;;15.53;10.87;;;3.40;99.90;;;;;;5042791;28;20456;-70
2023/01/22 03:07:16;;;;;;;20.47;12.13;;;3.30;99.90;;;;;;5039852;28;20317;-71
2023/01/22 03:09:42;;;;;;;16.30;10.90;;;3.30;99.90;;;;;;5055226;28;20422;-71
2023/01/22 03:12:07;;;;;;;17.17;11.20;;;3.40;99.90;;;;;;5047550;28;20445;-71
2023/01/22 03:22:47;;;;;;;18.60;11.53;;;3.40;99.90;;;;;;5051651;28;20456;-72
2023/01/22 03:25:12;;;;;;;15.87;10.93;;;3.40;99.90;;;;;;5044657;28;20421;-72
2023/01/22 03:28:07;;;;;;;13.80;10.37;;;3.40;99.90;;;;;;5049287;28;20183;-71
2023/01/22 03:30:23;;;;;;;18.90;11.10;;;3.40;99.90;;;;;;5041859;28;20202;-72
2023/01/22 03:32:49;;;;;;;14.13;10.80;;;3.40;99.90;;;;;;5045814;28;20449;-72
2023/01/22 03:35:15;;;;;;;20.63;11.13;;;3.40;99.90;;;;;;5046164;28;20239;-73
2023/01/22 03:37:40;;;;;;;17.53;10.70;;;3.40;99.90;;;;;;5043950;28;20562;-72
2023/01/22 03:40:06;;;;;;;19.03;11.20;;;3.40;99.90;;;;;;5037008;28;20187;-72
2023/01/22 03:42:32;;;;;;;16.60;10.80;;;3.40;99.90;;;;;;5043348;28;20211;-72
2023/01/22 03:44:57;;;;;;;17.50;11.63;;;3.40;99.90;;;;;;5048607;28;20954;-73
2023/01/22 03:47:23;;;;;;;19.33;10.30;;;3.40;99.90;;;;;;5037570;28;20261;-73
2023/01/22 03:49:48;;;;;;;13.57;10.50;;;3.40;99.90;;;;;;5048857;28;20273;-72
2023/01/22 03:52:14;;;;;;;19.93;11.03;;;3.40;99.90;;;;;;5044480;28;20223;-71
2023/01/22 03:54:40;;;;;;;19.53;10.90;;;3.40;99.90;;;;;;5043029;28;20241;-71
2023/01/22 03:57:06;;;;;;;15.07;9.80;;;3.40;99.90;;;;;;5043435;28;20885;-71
2023/01/22 03:59:31;;;;;;;17.80;10.67;;;3.40;99.90;;;;;;5045592;28;20753;-71
2023/01/22 04:01:57;;;;;;;18.57;11.30;;;3.40;99.90;;;;;;5040595;28;20702;-71
2023/01/22 04:04:22;;;;;;;17.93;11.40;;;3.40;99.90;;;;;;5048073;28;20458;-70
2023/01/22 04:06:48;;;;;;;23.50;12.17;;;3.40;99.90;;;;;;5043529;28;20329;-71
2023/01/22 04:09:14;;;;;;;22.50;12.80;;;3.40;99.90;;;;;;5040639;28;20291;-71
2023/01/22 04:11:39;;;;;;;17.50;11.33;;;3.40;99.90;;;;;;5073772;28;20265;-71
2023/01/22 04:14:05;;;;;;;16.73;11.60;;;3.50;99.90;;;;;;5042534;28;20717;-72
2023/01/22 04:16:30;;;;;;;17.00;11.47;;;3.50;99.90;;;;;;5038117;28;20175;-72
2023/01/22 04:18:56;;;;;;;18.10;12.00;;;3.40;99.90;;;;;;5042577;28;20175;-71
2023/01/22 04:21:21;;;;;;;18.13;11.10;;;3.40;99.90;;;;;;5047579;28;20207;-71
2023/01/22 04:23:47;;;;;;;18.17;10.50;;;3.40;99.90;;;;;;5043246;28;20209;-71
2023/01/22 04:26:12;;;;;;;18.20;11.50;;;3.40;99.90;;;;;;5043760;28;21109;-71
2023/01/22 04:28:38;;;;;;;14.93;10.27;;;3.50;99.90;;;;;;5043900;28;22778;-73
2023/01/22 04:31:04;;;;;;;16.77;10.60;;;3.50;99.90;;;;;;5037142;28;20210;-73
2023/01/22 04:33:30;;;;;;;17.90;12.43;;;3.50;99.90;;;;;;5046089;28;20225;-72
2023/01/22 04:35:56;;;;;;;16.40;11.87;;;3.50;99.90;;;;;;5045362;28;20437;-72
2023/01/22 04:38:22;;;;;;;18.60;11.60;;;3.50;99.90;;;;;;5042854;28;20442;-72
2023/01/22 04:40:47;;;;;;;18.10;11.00;;;3.50;99.90;;;;;;5042581;28;20786;-72
2023/01/22 04:43:13;;;;;;;14.60;10.20;;;3.40;99.90;;;;;;5035711;28;20172;-72
2023/01/22 04:45:39;;;;;;;15.77;10.87;;;3.50;99.90;;;;;;5039736;28;20251;-72
2023/01/22 04:48:05;;;;;;;19.40;10.30;;;3.50;99.90;;;;;;5039247;28;20190;-71
2023/01/22 04:50:32;;;;;;;15.20;10.77;;;3.50;99.90;;;;;;5039467;28;20245;-71
2023/01/22 04:52:59;;;;;;;12.10;9.10;;;3.50;99.90;;;;;;5038991;28;20486;-71
2023/01/22 04:55:25;;;;;;;16.17;10.43;;;3.50;99.90;;;;;;5039794;28;20465;-71
2023/01/22 04:57:54;;;;;;;16.93;11.40;;;3.50;99.90;;;;;;5040845;28;20445;-71
2023/01/22 05:00:20;;;;;;;17.03;10.23;;;3.50;99.90;;;;;;5041449;28;20975;-72
2023/01/22 05:02:46;;;;;;;16.60;11.17;;;3.40;99.90;;;;;;5046572;28;20592;-72
2023/01/22 05:05:11;;;;;;;17.30;10.37;;;3.50;99.90;;;;;;5036960;28;20183;-72
2023/01/22 05:07:37;;;;;;;17.90;10.80;;;3.50;99.90;;;;;;5042889;28;20234;-72
2023/01/22 05:10:03;;;;;;;14.87;11.07;;;3.50;99.90;;;;;;5045418;28;20337;-72
2023/01/22 05:12:29;;;;;;;14.23;10.03;;;3.50;99.90;;;;;;5042099;28;20252;-72
2023/01/22 05:14:54;;;;;;;15.83;10.57;;;3.50;99.90;;;;;;5042066;28;21483;-72
2023/01/22 05:17:20;;;;;;;15.33;10.03;;;3.60;99.90;;;;;;5038587;28;20270;-71
2023/01/22 05:19:46;;;;;;;14.43;9.93;;;3.60;99.90;;;;;;5042536;28;20244;-72
2023/01/22 05:22:12;;;;;;;17.00;10.57;;;3.50;99.90;;;;;;5039892;28;20760;-72
2023/01/22 05:24:37;;;;;;;15.47;9.57;;;3.60;99.90;;;;;;5040034;28;20318;-72
2023/01/22 05:27:03;;;;;;;18.77;10.77;;;3.60;99.90;;;;;;5040682;28;20256;-72
2023/01/22 05:29:29;;;;;;;18.93;10.07;;;3.60;99.90;;;;;;5044430;28;20256;-72
2023/01/22 05:31:56;;;;;;;17.13;11.13;;;3.60;99.90;;;;;;5039283;28;20544;-72
2023/01/22 05:34:23;;;;;;;14.20;10.27;;;3.60;99.90;;;;;;5044274;28;20517;-72
2023/01/22 05:36:48;;;;;;;15.70;10.20;;;3.60;99.90;;;;;;5043136;28;20516;-71
2023/01/22 05:39:15;;;;;;;15.07;10.40;;;3.60;99.90;;;;;;5035368;28;20425;-73
2023/01/22 05:41:41;;;;;;;16.50;10.40;;;3.60;99.90;;;;;;5041494;28;20198;-73
2023/01/22 05:44:10;;;;;;;15.77;9.97;;;3.60;99.90;;;;;;5037385;28;20449;-71
2023/01/22 05:46:36;;;;;;;15.13;10.00;;;3.60;99.90;;;;;;5044028;28;20214;-70
2023/01/22 05:49:01;;;;;;;13.30;10.20;;;3.60;99.90;;;;;;5040984;28;20465;-71
2023/01/22 05:51:27;;;;;;;18.33;10.47;;;3.60;99.90;;;;;;5038987;28;20215;-70
2023/01/22 05:53:52;;;;;;;16.10;9.30;;;3.60;99.90;;;;;;5042902;28;20223;-70
2023/01/22 05:56:18;;;;;;;13.17;9.13;;;3.60;99.90;;;;;;5041207;28;20583;-70
2023/01/22 05:58:44;;;;;;;15.50;10.67;;;3.60;99.90;;;;;;5038691;28;20413;-70
2023/01/22 06:01:10;;;;;;;12.13;9.23;;;3.70;99.90;;;;;;5055405;28;20213;-71
2023/01/22 06:03:36;;;;;;;14.07;9.93;;;3.60;99.90;;;;;;5043274;28;20510;-72
2023/01/22 06:06:09;;;;;;;16.93;10.57;;;3.60;99.90;;;;;;5038312;28;20425;-72
2023/01/22 06:08:34;;;;;;;15.10;9.80;;;3.50;99.90;;;;;;5044107;28;20846;-72
2023/01/22 06:11:05;;;;;;;13.20;9.63;;;3.60;99.90;;;;;;5047594;28;20437;-72
2023/01/22 06:13:32;;;;;;;16.20;10.43;;;3.60;99.90;;;;;;5046388;28;20270;-72
2023/01/22 06:15:58;;;;;;;14.03;10.03;;;3.60;99.90;;;;;;5043574;28;20445;-74
2023/01/22 06:18:27;;;;;;;14.03;9.77;;;3.60;99.90;;;;;;5039812;28;20445;-75
2023/01/22 06:20:57;;;;;;;14.70;9.50;;;3.70;99.90;;;;;;5044758;28;20437;-73
2023/01/22 06:23:24;;;;;;;16.43;10.63;;;3.60;99.90;;;;;;5043769;28;20437;-73
2023/01/22 06:25:55;;;;;;;15.27;9.53;;;3.60;99.90;;;;;;5044387;28;20487;-74
2023/01/22 06:28:21;;;;;;;16.47;10.27;;;3.60;99.90;;;;;;5039974;28;20430;-70
2023/01/22 06:30:47;;;;;;;15.83;10.90;;;3.60;99.90;;;;;;5043811;28;20584;-71
2023/01/22 06:33:13;;;;;;;14.37;9.70;;;3.60;99.90;;;;;;5042038;28;20442;-72
2023/01/22 06:35:38;;;;;;;15.23;8.77;;;3.60;99.90;;;;;;5041599;28;20207;-70
2023/01/22 06:38:04;;;;;;;17.70;10.03;;;3.60;99.90;;;;;;5045451;28;20183;-70
2023/01/22 06:40:30;;;;;;;14.50;9.50;;;3.60;99.90;;;;;;5046456;28;20198;-71
2023/01/22 06:42:56;;;;;;;19.30;11.57;;;3.70;99.90;;;;;;5042161;28;20674;-70
2023/01/22 06:45:23;;;;;;;16.90;10.60;;;3.70;99.90;;;;;;5043030;28;20437;-70
2023/01/22 06:47:49;;;;;;;13.53;9.03;;;3.70;99.90;;;;;;5044364;28;20441;-71
2023/01/22 06:50:15;;;;;;;16.93;9.27;;;3.70;99.90;;;;;;5047031;28;20818;-71
2023/01/22 06:52:40;;;;;;;14.90;9.80;;;3.70;99.90;;;;;;5049342;28;20714;-71
2023/01/22 06:55:07;;;;;;;14.37;9.50;;;3.70;99.90;;;;;;5051153;28;20461;-71
2023/01/22 06:57:32;;;;;;;16.10;9.60;;;3.70;99.90;;;;;;5042423;28;20180;-71
2023/01/22 06:59:58;;;;;;;13.37;9.43;;;3.70;99.90;;;;;;5045861;28;20494;-71
2023/01/22 07:02:23;;;;;;;13.93;9.93;;;3.70;99.90;;;;;;5044349;28;20250;-71
2023/01/22 07:04:49;;;;;;;12.40;9.10;;;3.70;99.90;;;;;;5048304;28;20187;-71
2023/01/22 07:07:15;;;;;;;13.30;9.83;;;3.70;99.90;;;;;;5040954;28;20223;-70
2023/01/22 07:09:40;;;;;;;15.57;10.03;;;3.70;99.90;;;;;;5028829;28;20202;-70
2023/01/22 07:12:06;;;;;;;14.47;9.60;;;3.70;99.90;;;;;;5043609;28;20203;-71
2023/01/22 07:14:32;;;;;;;15.77;9.70;;;3.70;99.90;;;;;;5044963;28;20203;-71
2023/01/22 07:16:57;;;;;;;14.47;9.40;;;3.70;99.90;;;;;;5046357;28;20240;-70
2023/01/22 07:19:23;;;;;;;12.87;8.83;;;3.70;99.90;;;;;;5047965;28;20233;-71
2023/01/22 07:21:48;;;;;;;14.27;10.50;;;3.70;99.90;;;;;;5051407;28;20591;-70
2023/01/22 07:24:14;;;;;;;13.83;10.10;;;3.70;99.90;;;;;;5041658;28;20191;-70
2023/01/22 07:26:41;;;;;;;16.50;11.33;;;3.70;99.90;;;;;;5047260;28;20183;-70
2023/01/22 07:29:08;;;;;;;22.43;14.07;;;3.70;99.90;;;;;;5040334;28;20576;-70
2023/01/22 07:31:33;;;;;;;22.23;14.57;;;3.70;99.90;;;;;;5049647;28;20457;-71
2023/01/22 07:33:59;;;;;;;20.87;13.10;;;3.80;99.90;;;;;;5059283;28;20453;-71
2023/01/22 07:36:24;;;;;;;16.47;12.73;;;3.80;99.90;;;;;;5036357;28;20175;-70
2023/01/22 07:38:50;;;;;;;16.77;11.40;;;3.70;99.90;;;;;;5048243;28;20529;-70
2023/01/22 07:41:16;;;;;;;27.63;17.33;;;3.70;99.90;;;;;;5036372;28;20208;-72
2023/01/22 07:43:41;;;;;;;22.40;17.00;;;3.80;99.90;;;;;;5048796;28;20199;-71
2023/01/22 07:46:07;;;;;;;16.00;11.80;;;3.80;99.90;;;;;;5040987;28;20183;-72
2023/01/22 07:48:33;;;;;;;14.70;10.40;;;3.80;99.90;;;;;;5047936;28;20643;-72
2023/01/22 07:51:04;;;;;;;14.33;9.80;;;3.80;99.90;;;;;;5044819;28;20484;-72
2023/01/22 07:53:30;;;;;;;15.50;10.80;;;3.80;99.90;;;;;;5040728;28;20434;-71
2023/01/22 07:55:56;;;;;;;13.83;10.43;;;3.80;99.90;;;;;;5041512;28;20529;-71
2023/01/22 07:58:22;;;;;;;12.33;9.30;;;3.80;99.90;;;;;;5042317;28;20525;-70
2023/01/22 08:00:48;;;;;;;12.90;9.83;;;3.80;99.90;;;;;;5046267;28;20203;-70
2023/01/22 08:03:14;;;;;;;14.00;10.20;;;3.80;99.90;;;;;;5042271;28;20180;-70
2023/01/22 08:05:41;;;;;;;13.27;8.63;;;3.90;99.90;;;;;;5045857;28;20964;-72
2023/01/22 08:08:12;;;;;;;15.07;9.70;;;3.90;99.90;;;;;;5042990;28;20472;-70
2023/01/22 08:10:38;;;;;;;12.40;8.77;;;3.90;99.90;;;;;;5038204;28;20440;-71
2023/01/22 08:13:04;;;;;;;14.87;9.53;;;3.80;99.90;;;;;;5042897;28;20457;-71
2023/01/22 08:15:31;;;;;;;14.20;10.03;;;3.90;99.90;;;;;;5038481;28;20211;-71
2023/01/22 08:17:57;;;;;;;12.37;8.73;;;3.90;99.90;;;;;;5038311;28;20434;-70
2023/01/22 08:20:22;;;;;;;12.13;8.40;;;3.90;99.90;;;;;;5039731;28;20472;-72
2023/01/22 08:22:48;;;;;;;15.30;9.30;;;4.00;99.90;;;;;;5048443;28;20199;-70
2023/01/22 08:25:14;;;;;;;12.17;8.23;;;4.00;99.90;;;;;;5038643;28;20202;-71
2023/01/22 08:27:40;;;;;;;13.30;9.93;;;4.10;99.90;;;;;;5047674;28;20183;-72
2023/01/22 08:30:07;;;;;;;15.33;9.30;;;4.10;99.90;;;;;;5044492;28;20456;-72
2023/01/22 08:32:33;;;;;;;13.80;9.07;;;4.10;99.90;;;;;;5041175;28;20295;-72
2023/01/22 08:34:59;;;;;;;11.20;8.00;;;4.10;99.90;;;;;;5042915;28;20465;-70
2023/01/22 08:37:25;;;;;;;15.63;10.90;;;4.10;99.90;;;;;;5042360;28;20472;-70
2023/01/22 08:39:50;;;;;;;14.20;10.63;;;4.20;99.90;;;;;;5045382;28;20175;-71
2023/01/22 08:42:16;;;;;;;14.07;9.73;;;4.10;99.90;;;;;;5041388;28;20457;-71
2023/01/22 08:44:42;;;;;;;15.40;10.80;;;4.10;99.90;;;;;;5049168;28;20276;-71
2023/01/22 08:47:10;;;;;;;13.50;8.87;;;4.10;99.90;;;;;;5045064;28;22272;-74
2023/01/22 08:49:35;;;;;;;13.57;9.93;;;4.10;99.90;;;;;;5048020;28;20187;-71
2023/01/22 08:52:01;;;;;;;12.93;9.83;;;4.10;99.90;;;;;;5047980;28;20543;-72
2023/01/22 08:54:27;;;;;;;13.53;9.77;;;4.20;99.90;;;;;;5051040;28;20207;-72
2023/01/22 08:56:55;;;;;;;16.90;10.20;;;4.20;99.90;;;;;;5051973;28;20187;-73
2023/01/22 08:59:21;;;;;;;14.33;10.20;;;4.20;99.90;;;;;;5051830;28;20272;-73
2023/01/22 09:01:47;;;;;;;12.33;10.03;;;4.20;99.90;;;;;;5058267;28;20453;-71
2023/01/22 09:04:12;;;;;;;12.17;9.13;;;4.20;99.90;;;;;;5048276;28;20187;-70
2023/01/22 09:06:38;;;;;;;11.90;9.07;;;4.20;99.90;;;;;;5046470;28;20176;-71
2023/01/22 09:09:05;;;;;;;12.03;9.43;;;4.10;99.90;;;;;;5045066;28;20180;-71
2023/01/22 09:11:31;;;;;;;10.90;8.50;;;4.20;99.90;;;;;;5042781;28;21106;-70
2023/01/22 09:13:57;;;;;;;13.60;10.00;;;4.20;99.90;;;;;;5078498;28;20461;-70
2023/01/22 09:16:24;;;;;;;14.97;10.80;;;4.10;99.90;;;;;;5040391;28;20445;-69
2023/01/22 09:18:50;;;;;;;11.50;8.10;;;4.10;99.90;;;;;;5048402;28;20441;-70
2023/01/22 09:21:15;;;;;;;10.17;8.40;;;4.10;99.90;;;;;;5046603;28;20512;-70
2023/01/22 09:23:41;;;;;;;12.60;8.47;;;4.10;99.90;;;;;;5048806;28;20175;-71
2023/01/22 09:26:07;;;;;;;11.67;7.27;;;4.10;99.90;;;;;;5045039;28;20189;-70
2023/01/22 09:28:33;;;;;;;13.10;9.50;;;4.10;99.90;;;;;;5045437;28;20386;-72
2023/01/22 09:30:58;;;;;;;10.10;8.57;;;4.20;99.90;;;;;;5048919;28;20184;-69
2023/01/22 09:33:24;;;;;;;12.00;10.03;;;4.20;99.90;;;;;;5049180;28;20442;-69
2023/01/22 09:35:50;;;;;;;10.97;8.27;;;4.30;99.90;;;;;;5049342;28;20470;-69
2023/01/22 09:38:17;;;;;;;11.67;9.27;;;4.40;99.90;;;;;;5051257;28;20187;-69
2023/01/22 09:40:57;;;;;;;11.00;8.60;;;4.40;99.90;;;;;;5064917;28;20545;-70
2023/01/22 09:43:33;;;;;;;10.23;8.13;;;4.40;99.90;;;;;;5059282;28;20497;-70
2023/01/22 09:46:07;;;;;;;13.00;8.60;;;4.50;99.90;;;;;;5073687;28;20432;-69
2023/01/22 09:48:38;;;;;;;13.10;8.53;;;4.60;99.90;;;;;;5057755;28;20455;-72
2023/01/22 09:51:04;;;;;;;10.03;8.50;;;4.60;99.90;;;;;;5045967;28;20891;-71
2023/01/22 09:53:30;;;;;;;11.97;8.37;;;4.70;99.90;;;;;;5049377;28;20497;-68
2023/01/22 09:55:56;;;;;;;11.87;7.37;;;4.70;99.90;;;;;;5049433;28;20484;-65
2023/01/22 09:58:24;;;;;;;8.83;7.93;;;4.70;99.90;;;;;;5046210;28;20433;-65
2023/01/22 10:00:59;;;;;;;11.17;8.27;;;4.70;99.90;;;;;;5050872;28;20944;-69
2023/01/22 10:03:29;;;;;;;9.17;7.40;;;4.70;99.90;;;;;;5051649;28;20432;-72
2023/01/22 10:05:58;;;;;;;7.83;7.03;;;4.70;99.90;;;;;;5049169;28;20468;-66
2023/01/22 10:08:36;;;;;;;10.13;7.37;;;4.70;99.90;;;;;;5049328;28;20434;-67
2023/01/22 10:11:03;;;;;;;9.33;7.57;;;4.70;99.90;;;;;;5049839;28;20972;-67
2023/01/22 10:13:32;;;;;;;12.07;8.73;;;4.70;99.90;;;;;;5049476;28;20425;-67
2023/01/22 10:15:58;;;;;;;10.40;7.63;;;4.70;99.90;;;;;;5049816;28;20467;-67
2023/01/22 10:18:45;;;;;;;12.80;10.00;;;4.70;99.90;;;;;;5050069;28;20437;-67
2023/01/22 10:21:22;;;;;;;12.23;8.87;;;4.70;99.90;;;;;;5049483;28;21106;-66
2023/01/22 10:23:49;;;;;;;11.00;9.67;;;4.60;99.90;;;;;;5052220;28;20459;-66
2023/01/22 10:26:47;;;;;;;10.13;8.07;;;4.70;99.90;;;;;;5048148;28;20464;-66
2023/01/22 10:29:28;;;;;;;18.87;10.60;;;4.70;99.90;;;;;;5049487;28;20449;-65
2023/01/22 10:32:00;;;;;;;10.43;9.20;;;4.70;99.90;;;;;;5048557;28;20510;-66
2023/01/22 10:34:33;;;;;;;12.27;8.60;;;4.70;99.90;;;;;;5048198;28;20506;-65
2023/01/22 10:37:02;;;;;;;9.33;7.53;;;4.70;99.90;;;;;;5048785;28;20482;-65
2023/01/22 10:39:38;;;;;;;12.07;9.57;;;4.70;99.90;;;;;;5047673;28;21327;-66
2023/01/22 10:42:04;;;;;;;10.20;7.40;;;4.80;99.90;;;;;;5046182;28;20454;-66
2023/01/22 10:44:29;;;;;;;11.73;8.30;;;4.80;99.90;;;;;;5046185;28;20452;-65
2023/01/22 10:47:07;;;;;;;11.13;7.10;;;4.80;99.90;;;;;;5049090;28;20234;-65
2023/01/22 10:49:32;;;;;;;10.90;8.67;;;4.70;99.90;;;;;;5049741;28;20201;-65
2023/01/22 10:52:03;;;;;;;13.40;7.67;;;4.80;99.90;;;;;;5053609;28;21003;-66
2023/01/22 10:54:33;;;;;;;11.37;8.10;;;4.80;99.90;;;;;;5048918;28;20851;-66
2023/01/22 10:57:13;;;;;;;9.20;7.83;;;4.80;99.90;;;;;;5051025;28;21191;-66
2023/01/22 10:59:39;;;;;;;9.73;7.47;;;4.90;99.90;;;;;;5048466;28;20541;-67
2023/01/22 11:02:18;;;;;;;9.33;7.57;;;4.90;99.90;;;;;;5047717;28;20615;-66
2023/01/22 11:04:44;;;;;;;22.17;12.70;;;4.90;99.90;;;;;;5054532;28;20179;-65
2023/01/22 11:07:25;;;;;;;11.40;8.93;;;4.90;99.90;;;;;;5046435;28;20686;-66
2023/01/22 11:10:32;;;;;;;11.90;8.30;;;5.00;99.90;;;;;;5053923;28;20561;-65
2023/01/22 11:13:14;;;;;;;8.63;7.47;;;5.00;99.90;;;;;;5046261;28;20468;-66
2023/01/22 11:15:46;;;;;;;10.40;7.57;;;5.10;99.90;;;;;;5047410;28;20469;-66
2023/01/22 11:18:22;;;;;;;9.80;7.90;;;5.00;99.90;;;;;;5047099;28;20434;-66
2023/01/22 11:20:59;;;;;;;9.40;7.33;;;5.00;99.90;;;;;;5046877;28;20500;-67
2023/01/22 11:23:43;;;;;;;10.70;7.97;;;5.10;99.90;;;;;;5051009;28;20963;-66
2023/01/22 11:26:36;;;;;;;9.20;7.30;;;5.10;99.90;;;;;;5048311;28;20441;-66
2023/01/22 11:29:11;;;;;;;13.03;9.10;;;5.10;99.90;;;;;;5045060;28;20601;-66
2023/01/22 11:32:01;;;;;;;10.60;8.00;;;5.10;99.90;;;;;;5045676;28;20458;-66
2023/01/22 11:34:45;;;;;;;9.33;8.37;;;5.20;99.90;;;;;;5050720;28;20496;-66
2023/01/22 11:37:18;;;;;;;10.13;8.00;;;5.10;99.90;;;;;;5047955;28;20503;-66
2023/01/22 11:40:00;;;;;;;9.00;7.47;;;5.20;99.90;;;;;;5051695;28;20437;-66
2023/01/22 11:42:36;;;;;;;10.63;7.70;;;5.20;99.90;;;;;;5045012;28;20462;-66
2023/01/22 11:45:24;;;;;;;8.90;7.17;;;5.20;99.90;;;;;;5051120;28;20436;-66
2023/01/22 11:48:16;;;;;;;9.40;8.07;;;5.30;99.90;;;;;;5041400;28;20447;-66
2023/01/22 11:50:45;;;;;;;7.37;6.47;;;5.30;99.90;;;;;;5046325;28;20446;-66
2023/01/22 11:53:45;;;;;;;9.37;7.17;;;5.40;99.90;;;;;;5046706;28;20473;-66
2023/01/22 11:56:29;;;;;;;8.77;6.70;;;5.40;99.90;;;;;;5043966;28;20551;-65
2023/01/22 11:59:01;;;;;;;9.53;7.23;;;5.50;99.90;;;;;;5049096;28;21011;-69
2023/01/22 12:01:45;;;;;;;10.30;7.20;;;5.50;99.90;;;;;;5044774;28;20453;-68
2023/01/22 12:04:20;;;;;;;7.67;6.63;;;5.50;99.90;;;;;;5042412;28;20487;-68
2023/01/22 12:06:48;;;;;;;7.77;6.50;;;5.60;99.90;;;;;;5043961;28;20436;-65
2023/01/22 12:09:59;;;;;;;10.90;8.00;;;5.60;99.90;;;;;;5044673;28;20519;-66
2023/01/22 12:12:27;;;;;;;9.80;7.00;;;5.70;99.90;;;;;;5046546;28;20501;-66
2023/01/22 12:15:28;;;;;;;9.40;7.03;;;5.70;99.90;;;;;;5048969;28;20476;-66
2023/01/22 12:18:00;;;;;;;7.60;6.80;;;5.70;99.90;;;;;;5048321;28;20446;-66
2023/01/22 12:20:31;;;;;;;9.27;7.33;;;5.80;99.90;;;;;;5048409;28;20434;-65
2023/01/22 12:23:07;;;;;;;9.23;6.83;;;5.90;99.90;;;;;;5047594;28;20537;-66
2023/01/22 12:25:38;;;;;;;11.10;8.30;;;5.90;99.90;;;;;;5049361;28;20430;-66
2023/01/22 12:28:13;;;;;;;10.20;7.37;;;6.00;99.90;;;;;;5053996;28;20448;-65
2023/01/22 12:30:59;;;;;;;15.23;9.23;;;6.00;99.90;;;;;;5050682;28;20433;-66
2023/01/22 12:33:28;;;;;;;8.57;7.53;;;6.00;99.90;;;;;;5048122;28;20433;-65
2023/01/22 12:35:58;;;;;;;13.23;9.80;;;6.00;99.90;;;;;;5050639;28;20543;-65
2023/01/22 12:38:31;;;;;;;9.27;7.60;;;6.10;99.90;;;;;;5049099;28;20483;-66
2023/01/22 12:41:09;;;;;;;10.10;8.20;;;6.10;99.90;;;;;;5048314;28;20429;-66
2023/01/22 12:43:52;;;;;;;9.17;8.13;;;6.10;99.90;;;;;;5047558;28;20441;-66
2023/01/22 12:46:40;;;;;;;11.30;8.90;;;6.10;99.90;;;;;;5052023;28;20434;-66
2023/01/22 12:49:15;;;;;;;10.77;8.80;;;6.10;99.90;;;;;;5047903;28;20425;-66
2023/01/22 12:51:44;;;;;;;8.73;7.37;;;6.10;99.90;;;;;;5049100;28;20472;-66
2023/01/22 12:54:18;;;;;;;9.33;6.70;;;6.10;99.90;;;;;;5051283;28;20514;-66
2023/01/22 12:56:43;;;;;;;9.83;6.97;;;6.20;99.90;;;;;;5046050;28;20906;-66
2023/01/22 12:59:34;;;;;;;8.90;8.00;;;6.20;99.90;;;;;;5045962;28;20456;-66